sensor_id;sensor_type;location;lat;lon;timestamp;P1;durP1;ratioP1;P2;durP2;ratioP2
55728;SDS011;41633;39.720;2.910;2023-07-20T00:01:35;21.65;;;6.90;;
55728;SDS011;41633;39.720;2.910;2023-07-20T00:04:03;20.08;;;6.70;;
55728;SDS011;41633;39.720;2.910;2023-07-20T00:06:29;16.20;;;7.07;;
55728;SDS011;41633;39.720;2.910;2023-07-20T00:08:55;18.92;;;7.63;;
55728;SDS011;41633;39.720;2.910;2023-07-20T00:11:25;18.05;;;7.10;;
55728;SDS011;41633;39.720;2.910;2023-07-20T00:13:52;21.95;;;8.02;;
55728;SDS011;41633;39.720;2.910;2023-07-20T00:16:18;16.67;;;7.20;;
55728;SDS011;41633;39.720;2.910;2023-07-20T00:18:44;18.95;;;7.45;;
55728;SDS011;41633;39.720;2.910;2023-07-20T00:21:10;16.98;;;6.55;;
55728;SDS011;41633;39.720;2.910;2023-07-20T00:23:37;18.10;;;7.18;;
55728;SDS011;41633;39.720;2.910;2023-07-20T00:26:03;16.98;;;6.88;;
55728;SDS011;41633;39.720;2.910;2023-07-20T00:28:29;17.70;;;7.15;;
55728;SDS011;41633;39.720;2.910;2023-07-20T00:30:56;20.00;;;7.20;;
55728;SDS011;41633;39.720;2.910;2023-07-20T00:33:22;19.98;;;7.30;;
55728;SDS011;41633;39.720;2.910;2023-07-20T00:35:48;17.50;;;7.00;;
55728;SDS011;41633;39.720;2.910;2023-07-20T00:38:14;18.40;;;7.45;;
55728;SDS011;41633;39.720;2.910;2023-07-20T00:40:41;18.23;;;7.03;;
55728;SDS011;41633;39.720;2.910;2023-07-20T00:43:07;18.50;;;7.30;;
55728;SDS011;41633;39.720;2.910;2023-07-20T00:45:34;19.35;;;6.82;;
55728;SDS011;41633;39.720;2.910;2023-07-20T00:48:01;17.52;;;7.28;;
55728;SDS011;41633;39.720;2.910;2023-07-20T00:50:28;19.75;;;6.95;;
55728;SDS011;41633;39.720;2.910;2023-07-20T00:52:55;18.35;;;7.68;;
55728;SDS011;41633;39.720;2.910;2023-07-20T00:55:22;19.77;;;7.70;;
55728;SDS011;41633;39.720;2.910;2023-07-20T00:57:49;19.92;;;7.68;;
55728;SDS011;41633;39.720;2.910;2023-07-20T01:00:15;19.75;;;7.13;;
55728;SDS011;41633;39.720;2.910;2023-07-20T01:02:42;15.52;;;6.95;;
55728;SDS011;41633;39.720;2.910;2023-07-20T01:05:08;24.08;;;7.80;;
55728;SDS011;41633;39.720;2.910;2023-07-20T01:07:54;19.38;;;7.65;;
55728;SDS011;41633;39.720;2.910;2023-07-20T01:10:35;18.77;;;7.22;;
55728;SDS011;41633;39.720;2.910;2023-07-20T01:13:02;19.08;;;7.30;;
55728;SDS011;41633;39.720;2.910;2023-07-20T01:15:29;22.88;;;7.97;;
55728;SDS011;41633;39.720;2.910;2023-07-20T01:17:55;23.13;;;7.75;;
55728;SDS011;41633;39.720;2.910;2023-07-20T01:20:21;17.90;;;7.45;;
55728;SDS011;41633;39.720;2.910;2023-07-20T01:30:43;23.17;;;7.75;;
55728;SDS011;41633;39.720;2.910;2023-07-20T01:33:11;20.75;;;7.05;;
55728;SDS011;41633;39.720;2.910;2023-07-20T01:35:39;20.17;;;7.68;;
55728;SDS011;41633;39.720;2.910;2023-07-20T01:38:08;17.55;;;7.30;;
55728;SDS011;41633;39.720;2.910;2023-07-20T01:40:34;17.27;;;7.75;;
55728;SDS011;41633;39.720;2.910;2023-07-20T01:43:02;19.73;;;7.47;;
55728;SDS011;41633;39.720;2.910;2023-07-20T01:45:28;23.77;;;7.80;;
55728;SDS011;41633;39.720;2.910;2023-07-20T01:47:54;19.67;;;7.60;;
55728;SDS011;41633;39.720;2.910;2023-07-20T01:50:20;23.20;;;8.13;;
55728;SDS011;41633;39.720;2.910;2023-07-20T01:52:46;19.25;;;7.45;;
55728;SDS011;41633;39.720;2.910;2023-07-20T01:55:13;17.63;;;7.55;;
55728;SDS011;41633;39.720;2.910;2023-07-20T01:57:39;18.77;;;7.43;;
55728;SDS011;41633;39.720;2.910;2023-07-20T02:00:05;19.35;;;7.72;;
55728;SDS011;41633;39.720;2.910;2023-07-20T02:02:32;21.27;;;7.65;;
55728;SDS011;41633;39.720;2.910;2023-07-20T02:04:58;22.15;;;8.10;;
55728;SDS011;41633;39.720;2.910;2023-07-20T02:07:24;17.83;;;6.97;;
55728;SDS011;41633;39.720;2.910;2023-07-20T02:09:50;22.30;;;7.90;;
55728;SDS011;41633;39.720;2.910;2023-07-20T02:12:17;18.10;;;6.97;;
55728;SDS011;41633;39.720;2.910;2023-07-20T02:14:43;21.55;;;7.63;;
55728;SDS011;41633;39.720;2.910;2023-07-20T02:17:09;19.77;;;7.45;;
55728;SDS011;41633;39.720;2.910;2023-07-20T02:19:36;20.25;;;7.32;;
55728;SDS011;41633;39.720;2.910;2023-07-20T02:22:02;20.73;;;7.75;;
55728;SDS011;41633;39.720;2.910;2023-07-20T02:24:29;19.50;;;7.10;;
55728;SDS011;41633;39.720;2.910;2023-07-20T02:26:55;18.48;;;6.78;;
55728;SDS011;41633;39.720;2.910;2023-07-20T02:29:21;20.92;;;7.47;;
55728;SDS011;41633;39.720;2.910;2023-07-20T02:31:47;16.88;;;7.22;;
55728;SDS011;41633;39.720;2.910;2023-07-20T02:34:13;20.50;;;7.47;;
55728;SDS011;41633;39.720;2.910;2023-07-20T02:36:39;20.42;;;8.02;;
55728;SDS011;41633;39.720;2.910;2023-07-20T02:39:07;17.63;;;7.35;;
55728;SDS011;41633;39.720;2.910;2023-07-20T02:41:34;15.88;;;7.47;;
55728;SDS011;41633;39.720;2.910;2023-07-20T02:44:00;20.33;;;7.43;;
55728;SDS011;41633;39.720;2.910;2023-07-20T02:46:26;17.80;;;8.05;;
55728;SDS011;41633;39.720;2.910;2023-07-20T02:48:55;19.85;;;7.32;;
55728;SDS011;41633;39.720;2.910;2023-07-20T02:51:21;20.60;;;7.75;;
55728;SDS011;41633;39.720;2.910;2023-07-20T02:53:47;16.88;;;7.07;;
55728;SDS011;41633;39.720;2.910;2023-07-20T02:56:13;17.67;;;7.00;;
55728;SDS011;41633;39.720;2.910;2023-07-20T02:58:41;19.55;;;7.35;;
55728;SDS011;41633;39.720;2.910;2023-07-20T03:01:11;17.40;;;6.65;;
55728;SDS011;41633;39.720;2.910;2023-07-20T03:03:37;18.52;;;6.93;;
55728;SDS011;41633;39.720;2.910;2023-07-20T03:06:03;17.75;;;7.18;;
55728;SDS011;41633;39.720;2.910;2023-07-20T03:08:30;17.77;;;7.30;;
55728;SDS011;41633;39.720;2.910;2023-07-20T03:10:56;17.83;;;6.88;;
55728;SDS011;41633;39.720;2.910;2023-07-20T03:13:22;22.40;;;7.60;;
55728;SDS011;41633;39.720;2.910;2023-07-20T03:15:49;19.40;;;7.40;;
55728;SDS011;41633;39.720;2.910;2023-07-20T03:18:16;19.92;;;7.65;;
55728;SDS011;41633;39.720;2.910;2023-07-20T03:20:42;24.27;;;8.38;;
55728;SDS011;41633;39.720;2.910;2023-07-20T03:23:08;16.10;;;7.35;;
55728;SDS011;41633;39.720;2.910;2023-07-20T03:25:34;20.23;;;7.40;;
55728;SDS011;41633;39.720;2.910;2023-07-20T03:28:02;22.75;;;7.75;;
55728;SDS011;41633;39.720;2.910;2023-07-20T03:30:28;17.55;;;7.50;;
55728;SDS011;41633;39.720;2.910;2023-07-20T03:32:54;17.75;;;8.13;;
55728;SDS011;41633;39.720;2.910;2023-07-20T03:35:21;18.55;;;7.90;;
55728;SDS011;41633;39.720;2.910;2023-07-20T03:37:47;17.33;;;8.27;;
55728;SDS011;41633;39.720;2.910;2023-07-20T03:40:13;17.95;;;7.57;;
55728;SDS011;41633;39.720;2.910;2023-07-20T03:42:40;19.65;;;8.13;;
55728;SDS011;41633;39.720;2.910;2023-07-20T03:45:07;16.70;;;8.15;;
55728;SDS011;41633;39.720;2.910;2023-07-20T03:47:33;24.30;;;7.70;;
55728;SDS011;41633;39.720;2.910;2023-07-20T03:49:59;16.52;;;7.88;;
55728;SDS011;41633;39.720;2.910;2023-07-20T03:52:25;19.17;;;8.02;;
55728;SDS011;41633;39.720;2.910;2023-07-20T03:54:51;20.88;;;7.82;;
55728;SDS011;41633;39.720;2.910;2023-07-20T03:57:17;21.73;;;8.75;;
55728;SDS011;41633;39.720;2.910;2023-07-20T03:59:47;15.70;;;7.63;;
55728;SDS011;41633;39.720;2.910;2023-07-20T04:02:14;20.83;;;8.50;;
55728;SDS011;41633;39.720;2.910;2023-07-20T04:04:40;21.75;;;7.50;;
55728;SDS011;41633;39.720;2.910;2023-07-20T04:07:06;15.93;;;6.93;;
55728;SDS011;41633;39.720;2.910;2023-07-20T04:09:32;17.83;;;6.95;;
55728;SDS011;41633;39.720;2.910;2023-07-20T04:11:58;14.52;;;6.30;;
55728;SDS011;41633;39.720;2.910;2023-07-20T04:14:25;18.45;;;6.38;;
55728;SDS011;41633;39.720;2.910;2023-07-20T04:16:51;20.33;;;6.78;;
55728;SDS011;41633;39.720;2.910;2023-07-20T04:19:17;15.68;;;6.57;;
55728;SDS011;41633;39.720;2.910;2023-07-20T04:21:43;18.05;;;6.90;;
55728;SDS011;41633;39.720;2.910;2023-07-20T04:24:09;15.80;;;6.63;;
55728;SDS011;41633;39.720;2.910;2023-07-20T04:26:36;16.65;;;5.45;;
55728;SDS011;41633;39.720;2.910;2023-07-20T04:29:02;14.32;;;6.32;;
55728;SDS011;41633;39.720;2.910;2023-07-20T04:31:29;15.15;;;5.80;;
55728;SDS011;41633;39.720;2.910;2023-07-20T04:33:58;26.50;;;6.90;;
55728;SDS011;41633;39.720;2.910;2023-07-20T04:36:24;28.42;;;7.10;;
55728;SDS011;41633;39.720;2.910;2023-07-20T04:38:50;30.35;;;7.80;;
55728;SDS011;41633;39.720;2.910;2023-07-20T04:41:16;50.50;;;10.23;;
55728;SDS011;41633;39.720;2.910;2023-07-20T04:43:43;68.88;;;12.40;;
55728;SDS011;41633;39.720;2.910;2023-07-20T04:46:10;29.05;;;7.85;;
55728;SDS011;41633;39.720;2.910;2023-07-20T04:48:36;15.70;;;6.05;;
55728;SDS011;41633;39.720;2.910;2023-07-20T04:51:03;17.42;;;6.78;;
55728;SDS011;41633;39.720;2.910;2023-07-20T04:53:29;13.80;;;5.63;;
55728;SDS011;41633;39.720;2.910;2023-07-20T04:55:56;17.73;;;6.43;;
55728;SDS011;41633;39.720;2.910;2023-07-20T04:58:22;15.20;;;6.25;;
55728;SDS011;41633;39.720;2.910;2023-07-20T05:00:49;15.60;;;5.72;;
55728;SDS011;41633;39.720;2.910;2023-07-20T05:03:16;14.68;;;6.18;;
55728;SDS011;41633;39.720;2.910;2023-07-20T05:05:42;15.52;;;5.80;;
55728;SDS011;41633;39.720;2.910;2023-07-20T05:08:08;15.38;;;6.15;;
55728;SDS011;41633;39.720;2.910;2023-07-20T05:10:34;15.68;;;6.53;;
55728;SDS011;41633;39.720;2.910;2023-07-20T05:13:01;17.13;;;7.53;;
55728;SDS011;41633;39.720;2.910;2023-07-20T05:15:27;16.38;;;6.28;;
55728;SDS011;41633;39.720;2.910;2023-07-20T05:17:53;16.15;;;6.43;;
55728;SDS011;41633;39.720;2.910;2023-07-20T05:20:19;15.85;;;5.90;;
55728;SDS011;41633;39.720;2.910;2023-07-20T05:22:46;17.05;;;6.10;;
55728;SDS011;41633;39.720;2.910;2023-07-20T05:25:12;16.60;;;7.20;;
55728;SDS011;41633;39.720;2.910;2023-07-20T05:27:38;16.70;;;7.97;;
55728;SDS011;41633;39.720;2.910;2023-07-20T05:30:05;17.80;;;6.32;;
55728;SDS011;41633;39.720;2.910;2023-07-20T05:32:35;14.45;;;6.53;;
55728;SDS011;41633;39.720;2.910;2023-07-20T05:35:01;17.17;;;6.38;;
55728;SDS011;41633;39.720;2.910;2023-07-20T05:37:27;18.17;;;6.32;;
55728;SDS011;41633;39.720;2.910;2023-07-20T05:39:53;17.27;;;7.00;;
55728;SDS011;41633;39.720;2.910;2023-07-20T05:42:20;14.13;;;6.43;;
55728;SDS011;41633;39.720;2.910;2023-07-20T05:44:46;13.40;;;5.63;;
55728;SDS011;41633;39.720;2.910;2023-07-20T05:47:13;14.23;;;6.10;;
55728;SDS011;41633;39.720;2.910;2023-07-20T05:49:39;15.10;;;6.18;;
55728;SDS011;41633;39.720;2.910;2023-07-20T05:52:05;13.27;;;6.15;;
55728;SDS011;41633;39.720;2.910;2023-07-20T05:54:31;12.73;;;5.43;;
55728;SDS011;41633;39.720;2.910;2023-07-20T05:56:57;15.80;;;5.97;;
55728;SDS011;41633;39.720;2.910;2023-07-20T05:59:24;16.65;;;5.88;;
55728;SDS011;41633;39.720;2.910;2023-07-20T06:01:50;16.42;;;6.18;;
55728;SDS011;41633;39.720;2.910;2023-07-20T06:04:16;16.50;;;6.30;;
55728;SDS011;41633;39.720;2.910;2023-07-20T06:06:43;16.60;;;6.18;;
55728;SDS011;41633;39.720;2.910;2023-07-20T06:09:09;15.73;;;6.30;;
55728;SDS011;41633;39.720;2.910;2023-07-20T06:11:37;14.80;;;6.28;;
55728;SDS011;41633;39.720;2.910;2023-07-20T06:14:04;14.75;;;5.03;;
55728;SDS011;41633;39.720;2.910;2023-07-20T06:16:30;19.08;;;6.05;;
55728;SDS011;41633;39.720;2.910;2023-07-20T06:18:56;18.95;;;6.22;;
55728;SDS011;41633;39.720;2.910;2023-07-20T06:21:22;16.60;;;5.72;;
55728;SDS011;41633;39.720;2.910;2023-07-20T06:23:48;18.02;;;6.55;;
55728;SDS011;41633;39.720;2.910;2023-07-20T06:26:15;19.55;;;5.55;;
55728;SDS011;41633;39.720;2.910;2023-07-20T06:28:41;16.33;;;5.65;;
55728;SDS011;41633;39.720;2.910;2023-07-20T06:31:07;16.42;;;6.28;;
55728;SDS011;41633;39.720;2.910;2023-07-20T06:33:33;13.30;;;5.38;;
55728;SDS011;41633;39.720;2.910;2023-07-20T06:36:02;11.75;;;5.10;;
55728;SDS011;41633;39.720;2.910;2023-07-20T06:38:28;12.93;;;4.88;;
55728;SDS011;41633;39.720;2.910;2023-07-20T06:40:55;15.65;;;5.10;;
55728;SDS011;41633;39.720;2.910;2023-07-20T06:43:21;17.83;;;5.82;;
55728;SDS011;41633;39.720;2.910;2023-07-20T06:45:53;14.18;;;5.05;;
55728;SDS011;41633;39.720;2.910;2023-07-20T06:48:20;15.85;;;5.38;;
55728;SDS011;41633;39.720;2.910;2023-07-20T06:50:47;14.82;;;4.78;;
55728;SDS011;41633;39.720;2.910;2023-07-20T06:53:13;14.48;;;4.47;;
55728;SDS011;41633;39.720;2.910;2023-07-20T06:55:41;16.02;;;5.32;;
55728;SDS011;41633;39.720;2.910;2023-07-20T06:58:07;15.00;;;4.95;;
55728;SDS011;41633;39.720;2.910;2023-07-20T07:00:34;14.73;;;5.10;;
55728;SDS011;41633;39.720;2.910;2023-07-20T07:03:00;16.90;;;5.63;;
55728;SDS011;41633;39.720;2.910;2023-07-20T07:05:26;19.35;;;5.53;;
55728;SDS011;41633;39.720;2.910;2023-07-20T07:07:52;14.50;;;5.07;;
55728;SDS011;41633;39.720;2.910;2023-07-20T07:10:18;13.68;;;4.97;;
55728;SDS011;41633;39.720;2.910;2023-07-20T07:12:44;16.63;;;5.28;;
55728;SDS011;41633;39.720;2.910;2023-07-20T07:15:11;19.73;;;5.43;;
55728;SDS011;41633;39.720;2.910;2023-07-20T07:17:37;16.38;;;5.00;;
55728;SDS011;41633;39.720;2.910;2023-07-20T07:20:03;17.23;;;5.25;;
55728;SDS011;41633;39.720;2.910;2023-07-20T07:22:29;13.15;;;4.80;;
55728;SDS011;41633;39.720;2.910;2023-07-20T07:24:56;17.05;;;5.60;;
55728;SDS011;41633;39.720;2.910;2023-07-20T07:27:22;17.40;;;5.78;;
55728;SDS011;41633;39.720;2.910;2023-07-20T07:29:48;16.30;;;5.20;;
55728;SDS011;41633;39.720;2.910;2023-07-20T07:32:15;18.70;;;5.68;;
55728;SDS011;41633;39.720;2.910;2023-07-20T07:34:43;15.77;;;5.65;;
55728;SDS011;41633;39.720;2.910;2023-07-20T07:37:11;15.70;;;5.10;;
55728;SDS011;41633;39.720;2.910;2023-07-20T07:39:38;15.75;;;5.43;;
55728;SDS011;41633;39.720;2.910;2023-07-20T07:42:04;15.90;;;5.00;;
55728;SDS011;41633;39.720;2.910;2023-07-20T07:44:31;13.93;;;5.20;;
55728;SDS011;41633;39.720;2.910;2023-07-20T07:46:57;14.63;;;5.65;;
55728;SDS011;41633;39.720;2.910;2023-07-20T07:49:23;13.00;;;5.07;;
55728;SDS011;41633;39.720;2.910;2023-07-20T07:51:50;16.02;;;5.78;;
55728;SDS011;41633;39.720;2.910;2023-07-20T07:54:16;16.85;;;6.25;;
55728;SDS011;41633;39.720;2.910;2023-07-20T07:56:42;15.63;;;5.88;;
55728;SDS011;41633;39.720;2.910;2023-07-20T07:59:09;12.02;;;4.95;;
55728;SDS011;41633;39.720;2.910;2023-07-20T08:01:36;16.60;;;5.57;;
55728;SDS011;41633;39.720;2.910;2023-07-20T08:04:02;14.43;;;5.82;;
55728;SDS011;41633;39.720;2.910;2023-07-20T08:06:28;14.98;;;5.78;;
55728;SDS011;41633;39.720;2.910;2023-07-20T08:08:55;15.57;;;5.78;;
55728;SDS011;41633;39.720;2.910;2023-07-20T08:11:21;14.93;;;5.40;;
55728;SDS011;41633;39.720;2.910;2023-07-20T08:13:47;13.45;;;6.03;;
55728;SDS011;41633;39.720;2.910;2023-07-20T08:16:14;22.25;;;6.78;;
55728;SDS011;41633;39.720;2.910;2023-07-20T08:18:40;14.57;;;5.68;;
55728;SDS011;41633;39.720;2.910;2023-07-20T08:21:06;14.35;;;5.25;;
55728;SDS011;41633;39.720;2.910;2023-07-20T08:23:32;14.48;;;5.15;;
55728;SDS011;41633;39.720;2.910;2023-07-20T08:25:58;12.23;;;4.70;;
55728;SDS011;41633;39.720;2.910;2023-07-20T08:28:26;13.60;;;5.10;;
55728;SDS011;41633;39.720;2.910;2023-07-20T08:30:54;12.60;;;4.72;;
55728;SDS011;41633;39.720;2.910;2023-07-20T08:33:20;19.90;;;5.28;;
55728;SDS011;41633;39.720;2.910;2023-07-20T08:35:46;15.27;;;4.82;;
55728;SDS011;41633;39.720;2.910;2023-07-20T08:38:13;14.05;;;5.20;;
55728;SDS011;41633;39.720;2.910;2023-07-20T08:40:40;15.50;;;5.13;;
55728;SDS011;41633;39.720;2.910;2023-07-20T08:43:06;16.13;;;5.00;;
55728;SDS011;41633;39.720;2.910;2023-07-20T08:45:34;18.05;;;5.40;;
55728;SDS011;41633;39.720;2.910;2023-07-20T08:48:01;15.20;;;4.75;;
55728;SDS011;41633;39.720;2.910;2023-07-20T08:50:30;16.45;;;5.22;;
55728;SDS011;41633;39.720;2.910;2023-07-20T08:52:56;16.55;;;4.70;;
55728;SDS011;41633;39.720;2.910;2023-07-20T08:55:23;13.30;;;4.57;;
55728;SDS011;41633;39.720;2.910;2023-07-20T08:57:50;13.68;;;4.60;;
55728;SDS011;41633;39.720;2.910;2023-07-20T09:00:19;13.55;;;4.90;;
55728;SDS011;41633;39.720;2.910;2023-07-20T09:02:45;14.90;;;4.93;;
55728;SDS011;41633;39.720;2.910;2023-07-20T09:05:12;16.65;;;4.85;;
55728;SDS011;41633;39.720;2.910;2023-07-20T09:07:39;17.40;;;5.00;;
55728;SDS011;41633;39.720;2.910;2023-07-20T09:10:06;13.90;;;5.07;;
55728;SDS011;41633;39.720;2.910;2023-07-20T09:12:39;11.98;;;4.13;;
55728;SDS011;41633;39.720;2.910;2023-07-20T09:15:06;13.98;;;4.40;;
55728;SDS011;41633;39.720;2.910;2023-07-20T09:17:32;14.13;;;4.95;;
55728;SDS011;41633;39.720;2.910;2023-07-20T09:20:02;14.80;;;4.78;;
55728;SDS011;41633;39.720;2.910;2023-07-20T09:22:33;17.85;;;5.38;;
55728;SDS011;41633;39.720;2.910;2023-07-20T09:25:00;16.55;;;5.22;;
55728;SDS011;41633;39.720;2.910;2023-07-20T09:27:34;15.55;;;5.22;;
55728;SDS011;41633;39.720;2.910;2023-07-20T09:30:01;14.88;;;4.32;;
55728;SDS011;41633;39.720;2.910;2023-07-20T09:32:27;14.07;;;5.05;;
55728;SDS011;41633;39.720;2.910;2023-07-20T09:34:54;14.73;;;5.13;;
55728;SDS011;41633;39.720;2.910;2023-07-20T09:37:23;15.25;;;5.15;;
55728;SDS011;41633;39.720;2.910;2023-07-20T09:39:53;17.08;;;4.85;;
55728;SDS011;41633;39.720;2.910;2023-07-20T09:42:20;16.55;;;5.32;;
55728;SDS011;41633;39.720;2.910;2023-07-20T09:44:47;14.18;;;5.28;;
55728;SDS011;41633;39.720;2.910;2023-07-20T09:47:14;13.13;;;5.43;;
55728;SDS011;41633;39.720;2.910;2023-07-20T09:49:47;18.30;;;5.38;;
55728;SDS011;41633;39.720;2.910;2023-07-20T09:52:13;16.55;;;5.40;;
55728;SDS011;41633;39.720;2.910;2023-07-20T09:54:39;14.73;;;4.80;;
55728;SDS011;41633;39.720;2.910;2023-07-20T09:57:09;15.68;;;5.00;;
55728;SDS011;41633;39.720;2.910;2023-07-20T09:59:37;12.88;;;4.97;;
55728;SDS011;41633;39.720;2.910;2023-07-20T10:02:04;14.73;;;4.80;;
55728;SDS011;41633;39.720;2.910;2023-07-20T10:04:36;14.73;;;5.70;;
55728;SDS011;41633;39.720;2.910;2023-07-20T10:07:03;15.02;;;5.35;;
55728;SDS011;41633;39.720;2.910;2023-07-20T10:09:31;14.68;;;5.25;;
55728;SDS011;41633;39.720;2.910;2023-07-20T10:11:57;13.43;;;4.75;;
55728;SDS011;41633;39.720;2.910;2023-07-20T10:14:24;14.45;;;5.18;;
55728;SDS011;41633;39.720;2.910;2023-07-20T10:16:54;16.20;;;5.78;;
55728;SDS011;41633;39.720;2.910;2023-07-20T10:19:34;12.02;;;4.88;;
55728;SDS011;41633;39.720;2.910;2023-07-20T10:22:08;15.35;;;5.47;;
55728;SDS011;41633;39.720;2.910;2023-07-20T10:24:36;15.82;;;5.32;;
55728;SDS011;41633;39.720;2.910;2023-07-20T10:27:04;14.05;;;5.22;;
55728;SDS011;41633;39.720;2.910;2023-07-20T10:29:31;15.38;;;5.22;;
55728;SDS011;41633;39.720;2.910;2023-07-20T10:31:58;13.98;;;4.97;;
55728;SDS011;41633;39.720;2.910;2023-07-20T10:34:24;13.82;;;4.97;;
55728;SDS011;41633;39.720;2.910;2023-07-20T10:36:50;14.45;;;5.22;;
55728;SDS011;41633;39.720;2.910;2023-07-20T10:39:23;14.98;;;5.13;;
55728;SDS011;41633;39.720;2.910;2023-07-20T10:44:28;16.67;;;5.40;;
55728;SDS011;41633;39.720;2.910;2023-07-20T10:47:01;13.80;;;5.22;;
55728;SDS011;41633;39.720;2.910;2023-07-20T10:49:28;16.10;;;5.68;;
55728;SDS011;41633;39.720;2.910;2023-07-20T10:51:57;14.35;;;5.50;;
55728;SDS011;41633;39.720;2.910;2023-07-20T10:56:50;14.65;;;4.97;;
55728;SDS011;41633;39.720;2.910;2023-07-20T10:59:17;15.55;;;5.43;;
55728;SDS011;41633;39.720;2.910;2023-07-20T11:01:47;13.77;;;5.38;;
55728;SDS011;41633;39.720;2.910;2023-07-20T11:04:16;13.98;;;4.90;;
55728;SDS011;41633;39.720;2.910;2023-07-20T11:06:44;11.70;;;4.40;;
55728;SDS011;41633;39.720;2.910;2023-07-20T11:09:11;13.65;;;5.40;;
55728;SDS011;41633;39.720;2.910;2023-07-20T11:11:40;13.98;;;4.75;;
55728;SDS011;41633;39.720;2.910;2023-07-20T11:14:08;15.68;;;5.43;;
55728;SDS011;41633;39.720;2.910;2023-07-20T11:16:35;13.23;;;4.85;;
55728;SDS011;41633;39.720;2.910;2023-07-20T11:19:02;11.80;;;4.50;;
55728;SDS011;41633;39.720;2.910;2023-07-20T11:21:29;14.52;;;5.10;;
55728;SDS011;41633;39.720;2.910;2023-07-20T11:23:56;11.98;;;4.90;;
55728;SDS011;41633;39.720;2.910;2023-07-20T11:26:22;14.88;;;5.70;;
55728;SDS011;41633;39.720;2.910;2023-07-20T11:28:51;14.98;;;5.35;;
55728;SDS011;41633;39.720;2.910;2023-07-20T11:31:18;15.50;;;5.22;;
55728;SDS011;41633;39.720;2.910;2023-07-20T11:33:44;16.52;;;5.65;;
55728;SDS011;41633;39.720;2.910;2023-07-20T11:36:11;12.43;;;4.53;;
55728;SDS011;41633;39.720;2.910;2023-07-20T11:38:38;17.55;;;4.43;;
55728;SDS011;41633;39.720;2.910;2023-07-20T11:41:05;16.85;;;4.70;;
55728;SDS011;41633;39.720;2.910;2023-07-20T11:43:31;14.10;;;4.38;;
55728;SDS011;41633;39.720;2.910;2023-07-20T11:45:57;14.25;;;4.47;;
55728;SDS011;41633;39.720;2.910;2023-07-20T11:48:23;20.45;;;5.43;;
55728;SDS011;41633;39.720;2.910;2023-07-20T11:50:50;14.13;;;4.60;;
55728;SDS011;41633;39.720;2.910;2023-07-20T11:53:16;15.00;;;4.63;;
55728;SDS011;41633;39.720;2.910;2023-07-20T11:55:43;14.88;;;4.43;;
55728;SDS011;41633;39.720;2.910;2023-07-20T11:58:11;15.63;;;4.57;;
55728;SDS011;41633;39.720;2.910;2023-07-20T12:00:38;13.38;;;4.28;;
55728;SDS011;41633;39.720;2.910;2023-07-20T12:03:05;11.30;;;4.10;;
55728;SDS011;41633;39.720;2.910;2023-07-20T12:05:32;14.48;;;4.80;;
55728;SDS011;41633;39.720;2.910;2023-07-20T12:07:58;16.80;;;5.47;;
55728;SDS011;41633;39.720;2.910;2023-07-20T12:10:25;17.33;;;6.03;;
55728;SDS011;41633;39.720;2.910;2023-07-20T12:12:52;15.10;;;5.93;;
55728;SDS011;41633;39.720;2.910;2023-07-20T12:15:22;18.73;;;6.03;;
55728;SDS011;41633;39.720;2.910;2023-07-20T12:17:50;17.92;;;6.20;;
55728;SDS011;41633;39.720;2.910;2023-07-20T12:22:56;17.67;;;6.22;;
55728;SDS011;41633;39.720;2.910;2023-07-20T12:25:22;16.92;;;5.43;;
55728;SDS011;41633;39.720;2.910;2023-07-20T12:27:49;15.93;;;5.28;;
55728;SDS011;41633;39.720;2.910;2023-07-20T12:30:15;22.83;;;6.50;;
55728;SDS011;41633;39.720;2.910;2023-07-20T12:32:42;18.20;;;5.85;;
55728;SDS011;41633;39.720;2.910;2023-07-20T12:35:08;17.33;;;5.78;;
55728;SDS011;41633;39.720;2.910;2023-07-20T12:37:36;20.75;;;6.05;;
55728;SDS011;41633;39.720;2.910;2023-07-20T12:40:02;16.60;;;5.68;;
55728;SDS011;41633;39.720;2.910;2023-07-20T12:42:29;17.83;;;5.20;;
55728;SDS011;41633;39.720;2.910;2023-07-20T12:44:55;16.05;;;5.70;;
55728;SDS011;41633;39.720;2.910;2023-07-20T12:47:21;17.60;;;6.18;;
55728;SDS011;41633;39.720;2.910;2023-07-20T12:49:47;17.63;;;5.90;;
55728;SDS011;41633;39.720;2.910;2023-07-20T12:52:13;19.38;;;6.38;;
55728;SDS011;41633;39.720;2.910;2023-07-20T12:54:40;16.13;;;6.18;;
55728;SDS011;41633;39.720;2.910;2023-07-20T12:57:06;17.13;;;5.85;;
55728;SDS011;41633;39.720;2.910;2023-07-20T12:59:32;12.88;;;5.90;;
55728;SDS011;41633;39.720;2.910;2023-07-20T13:01:59;13.23;;;5.75;;
55728;SDS011;41633;39.720;2.910;2023-07-20T13:04:25;19.08;;;6.05;;
55728;SDS011;41633;39.720;2.910;2023-07-20T13:06:51;13.98;;;5.93;;
55728;SDS011;41633;39.720;2.910;2023-07-20T13:09:17;13.85;;;5.45;;
55728;SDS011;41633;39.720;2.910;2023-07-20T13:11:43;14.77;;;5.65;;
55728;SDS011;41633;39.720;2.910;2023-07-20T13:14:11;16.30;;;5.63;;
55728;SDS011;41633;39.720;2.910;2023-07-20T13:16:37;18.92;;;5.38;;
55728;SDS011;41633;39.720;2.910;2023-07-20T13:19:03;17.20;;;5.32;;
55728;SDS011;41633;39.720;2.910;2023-07-20T13:21:29;14.82;;;4.97;;
55728;SDS011;41633;39.720;2.910;2023-07-20T13:23:55;17.73;;;4.80;;
55728;SDS011;41633;39.720;2.910;2023-07-20T13:26:21;19.45;;;4.97;;
55728;SDS011;41633;39.720;2.910;2023-07-20T13:28:47;13.13;;;4.57;;
55728;SDS011;41633;39.720;2.910;2023-07-20T13:31:14;15.35;;;4.40;;
55728;SDS011;41633;39.720;2.910;2023-07-20T13:33:42;11.93;;;4.13;;
55728;SDS011;41633;39.720;2.910;2023-07-20T13:36:08;19.83;;;4.80;;
55728;SDS011;41633;39.720;2.910;2023-07-20T13:38:35;11.93;;;4.07;;
55728;SDS011;41633;39.720;2.910;2023-07-20T13:41:01;18.80;;;4.57;;
55728;SDS011;41633;39.720;2.910;2023-07-20T13:43:27;15.63;;;4.47;;
55728;SDS011;41633;39.720;2.910;2023-07-20T13:45:53;13.98;;;4.88;;
55728;SDS011;41633;39.720;2.910;2023-07-20T13:48:19;14.38;;;4.10;;
55728;SDS011;41633;39.720;2.910;2023-07-20T13:50:48;15.77;;;4.07;;
55728;SDS011;41633;39.720;2.910;2023-07-20T13:53:14;14.48;;;4.55;;
55728;SDS011;41633;39.720;2.910;2023-07-20T13:55:41;15.15;;;4.63;;
55728;SDS011;41633;39.720;2.910;2023-07-20T13:58:07;13.45;;;4.22;;
55728;SDS011;41633;39.720;2.910;2023-07-20T14:00:35;15.00;;;4.65;;
55728;SDS011;41633;39.720;2.910;2023-07-20T14:03:01;12.32;;;4.38;;
55728;SDS011;41633;39.720;2.910;2023-07-20T14:05:27;13.75;;;4.82;;
55728;SDS011;41633;39.720;2.910;2023-07-20T14:07:54;18.90;;;4.90;;
55728;SDS011;41633;39.720;2.910;2023-07-20T14:10:20;16.15;;;5.07;;
55728;SDS011;41633;39.720;2.910;2023-07-20T14:12:46;16.55;;;5.18;;
55728;SDS011;41633;39.720;2.910;2023-07-20T14:15:12;13.18;;;4.28;;
55728;SDS011;41633;39.720;2.910;2023-07-20T14:17:38;14.38;;;4.25;;
55728;SDS011;41633;39.720;2.910;2023-07-20T14:20:04;14.60;;;4.60;;
55728;SDS011;41633;39.720;2.910;2023-07-20T14:22:31;13.85;;;4.82;;
55728;SDS011;41633;39.720;2.910;2023-07-20T14:24:57;18.02;;;5.18;;
55728;SDS011;41633;39.720;2.910;2023-07-20T14:27:24;14.48;;;4.85;;
55728;SDS011;41633;39.720;2.910;2023-07-20T14:29:50;15.75;;;4.90;;
55728;SDS011;41633;39.720;2.910;2023-07-20T14:32:18;14.70;;;5.13;;
55728;SDS011;41633;39.720;2.910;2023-07-20T14:34:44;17.38;;;5.50;;
55728;SDS011;41633;39.720;2.910;2023-07-20T14:37:10;17.73;;;5.28;;
55728;SDS011;41633;39.720;2.910;2023-07-20T14:39:37;17.00;;;5.22;;
55728;SDS011;41633;39.720;2.910;2023-07-20T14:42:04;13.10;;;5.30;;
55728;SDS011;41633;39.720;2.910;2023-07-20T14:44:30;16.83;;;5.25;;
55728;SDS011;41633;39.720;2.910;2023-07-20T14:46:56;19.00;;;5.72;;